Bravo Supporter — ZDJY7 — position and weather

sailwx.info

Track history (hours):
 
Tides and Currents Weather Stations Pressure Air Temp Water Temp Dewpoint Dewpoint Depression Visibility Wind Speed Wind Dir Waves Ship Positions

Bravo Supporter

Last reported at 2017-Sep-12 07:06 UTC. Time now 2017-Sep-21 01:33 UTC.
Position N 34°34' E 032°06'.
Warning: this ship's position is 8 days out of date.

Length 56 m; draft 4.1 m.

Type: Other ship. MMSI: 236578000.

Date/timePositionNaut miles runAvg speedWind from/ knotsBaromVisibWave heightAir tempDewpointWater temp
2017-Sep-12 07:06N 34°34' E 032°06'0 4.2
2017-Sep-12 07:00N 34°34' E 032°06'2 4.1
2017-Sep-12 06:30N 34°36' E 032°06'2 4.6
2017-Sep-12 06:00N 34°38' E 032°06'3 5.3
2017-Sep-12 05:31N 34°41' E 032°06'4 6.7
2017-Sep-12 04:51N 34°43' E 032°01'2 5.3
2017-Sep-12 04:31N 34°41' E 031°60'4 4.9
2017-Sep-12 03:44N 34°37' E 031°60'1 4.9
2017-Sep-12 03:30N 34°36' E 031°60'2 4.9
2017-Sep-12 03:00N 34°34' E 031°60'31 4.6
2017-Sep-11 20:17N 34°03' E 031°60'1 4.6
2017-Sep-11 19:59N 34°01' E 031°60'15 1.7
2017-Sep-11 11:17N 34°15' E 032°06'1 4.9
2017-Sep-11 11:00N 34°17' E 032°06'2 4.6
2017-Sep-11 10:28N 34°19' E 032°06'2 4.4
2017-Sep-11 09:58N 34°21' E 032°06'2 4.4
2017-Sep-11 09:30N 34°23' E 032°06'2 4.6
2017-Sep-11 09:00N 34°25' E 032°06'2 4.6
2017-Sep-11 08:30N 34°28' E 032°06'4 4.6
2017-Sep-11 07:33N 34°32' E 032°06'29 1.7
2017-Sep-10 14:35N 34°03' E 032°07'6 4.5
2017-Sep-10 13:08N 34°10' E 032°07'1 4.2
2017-Sep-10 13:00N 34°10' E 032°07'2 4.6
2017-Sep-10 12:30N 34°12' E 032°06'2 4.8
2017-Sep-10 12:00N 34°15' E 032°06'2 4.3
2017-Sep-10 11:30N 34°17' E 032°06'3 4.4
2017-Sep-10 10:53N 34°20' E 032°06'2 4.4
2017-Sep-10 10:30N 34°21' E 032°06'2 4.4
2017-Sep-10 09:58N 34°24' E 032°06'2 4.2
2017-Sep-10 09:30N 34°26' E 032°06'37 2.3
2017-Sep-09 17:37N 33°49' E 032°05'1 7.8
2017-Sep-09 17:29N 33°49' E 032°06'2 4.0
2017-Sep-09 17:00N 33°51' E 032°07'32 4.7
2017-Sep-09 10:09N 34°23' E 032°05'5 4.2
2017-Sep-09 08:56N 34°28' E 032°05'25 1.3
2017-Sep-08 13:58N 34°03' E 032°07'11 4.6
2017-Sep-08 11:32N 34°14' E 032°06'0 4.1
2017-Sep-08 11:30N 34°14' E 032°06'2 4.5
2017-Sep-08 11:00N 34°16' E 032°06'2 4.1
2017-Sep-08 10:30N 34°18' E 032°06'2 4.1
2017-Sep-08 10:00N 34°20' E 032°06'2 4.4
2017-Sep-08 09:30N 34°23' E 032°06'  
2017-Sep-05 06:28N 33°53' E 032°03'3 5.7
2017-Sep-05 05:58N 33°52' E 032°06'2 3.3
2017-Sep-05 05:26N 33°54' E 032°07'2 4.7
2017-Sep-05 05:00N 33°56' E 032°06'2 4.0
2017-Sep-05 04:28N 33°58' E 032°06'2 4.9
2017-Sep-05 04:00N 34°00' E 032°06'3 3.5
2017-Sep-05 03:08N 33°57' E 032°08'1 4.8
2017-Sep-05 02:54N 33°59' E 032°08'4 4.7
2017-Sep-05 02:03N 34°03' E 032°08'0 4.7
2017-Sep-05 02:00N 34°03' E 032°08'3 4.6
2017-Sep-05 01:25N 34°06' E 032°08'1 3.3
2017-Sep-05 01:00N 34°07' E 032°08'1 3.0
2017-Sep-05 00:30N 34°08' E 032°08'1 2.0
2017-Sep-04 23:55N 34°10' E 032°08'2 4.4
2017-Sep-04 23:30N 34°11' E 032°08'8 6.3
2017-Sep-04 22:11N 34°20' E 032°07'1 4.4
2017-Sep-04 22:00N 34°20' E 032°07'4 4.6
2017-Sep-04 21:13N 34°24' E 032°07'2 4.7
2017-Sep-04 20:47N 34°26' E 032°07'4 4.6
2017-Sep-04 19:51N 34°30' E 032°07'2 4.6
2017-Sep-04 19:30N 34°32' E 032°07'3 4.7
2017-Sep-04 18:49N 34°35' E 032°07'2 4.6
2017-Sep-04 18:18N 34°38' E 032°07'1 4.7
2017-Sep-04 18:00N 34°39' E 032°07'7 2.9
2017-Sep-04 15:38N 34°34' E 032°01'1 4.2
2017-Sep-04 15:22N 34°33' E 032°01'2 4.2
2017-Sep-04 14:59N 34°32' E 032°01'4 4.4
2017-Sep-04 14:02N 34°27' E 032°01'0 4.9
2017-Sep-04 14:00N 34°27' E 032°01'12 4.6
2017-Sep-04 11:27N 34°15' E 032°01'8 5.7
2017-Sep-04 10:00N 34°07' E 032°01'6 0.7
2017-Sep-04 01:36N 34°04' E 032°08'1 4.2
2017-Sep-04 01:17N 34°05' E 032°08'4 4.3
2017-Sep-04 00:23N 34°09' E 032°08'3 4.4
2017-Sep-03 23:46N 34°12' E 032°08'1 5.2
2017-Sep-03 23:30N 34°13' E 032°08'  
Track history (hours):
 
Tides and Currents Weather Stations Pressure Air Temp Water Temp Dewpoint Dewpoint Depression Visibility Wind Speed Wind Dir Waves Ship Positions

Bravo Supporter

Last reported at 2017-Sep-12 07:06 UTC. Time now 2017-Sep-21 01:33 UTC.
Position N 34°34' E 032°06'.
Warning: this ship's position is 8 days out of date.

Length 56 m; draft 4.1 m.

Type: Other ship. MMSI: 236578000.

Date/timePositionNaut miles runAvg speedWind from/ knotsBaromVisibWave heightAir tempDewpointWater temp
2017-Sep-12 07:06N 34°34' E 032°06'0 4.2
2017-Sep-12 07:00N 34°34' E 032°06'2 4.1
2017-Sep-12 06:30N 34°36' E 032°06'2 4.6
2017-Sep-12 06:00N 34°38' E 032°06'3 5.3
2017-Sep-12 05:31N 34°41' E 032°06'4 6.7
2017-Sep-12 04:51N 34°43' E 032°01'2 5.3
2017-Sep-12 04:31N 34°41' E 031°60'4 4.9
2017-Sep-12 03:44N 34°37' E 031°60'1 4.9
2017-Sep-12 03:30N 34°36' E 031°60'2 4.9
2017-Sep-12 03:00N 34°34' E 031°60'31 4.6
2017-Sep-11 20:17N 34°03' E 031°60'1 4.6
2017-Sep-11 19:59N 34°01' E 031°60'15 1.7
2017-Sep-11 11:17N 34°15' E 032°06'1 4.9
2017-Sep-11 11:00N 34°17' E 032°06'2 4.6
2017-Sep-11 10:28N 34°19' E 032°06'2 4.4
2017-Sep-11 09:58N 34°21' E 032°06'2 4.4
2017-Sep-11 09:30N 34°23' E 032°06'2 4.6
2017-Sep-11 09:00N 34°25' E 032°06'2 4.6
2017-Sep-11 08:30N 34°28' E 032°06'4 4.6
2017-Sep-11 07:33N 34°32' E 032°06'29 1.7
2017-Sep-10 14:35N 34°03' E 032°07'6 4.5
2017-Sep-10 13:08N 34°10' E 032°07'1 4.2
2017-Sep-10 13:00N 34°10' E 032°07'2 4.6
2017-Sep-10 12:30N 34°12' E 032°06'2 4.8
2017-Sep-10 12:00N 34°15' E 032°06'2 4.3
2017-Sep-10 11:30N 34°17' E 032°06'3 4.4
2017-Sep-10 10:53N 34°20' E 032°06'2 4.4
2017-Sep-10 10:30N 34°21' E 032°06'2 4.4
2017-Sep-10 09:58N 34°24' E 032°06'2 4.2
2017-Sep-10 09:30N 34°26' E 032°06'37 2.3
2017-Sep-09 17:37N 33°49' E 032°05'1 7.8
2017-Sep-09 17:29N 33°49' E 032°06'2 4.0
2017-Sep-09 17:00N 33°51' E 032°07'32 4.7
2017-Sep-09 10:09N 34°23' E 032°05'5 4.2
2017-Sep-09 08:56N 34°28' E 032°05'25 1.3
2017-Sep-08 13:58N 34°03' E 032°07'11 4.6
2017-Sep-08 11:32N 34°14' E 032°06'0 4.1
2017-Sep-08 11:30N 34°14' E 032°06'2 4.5
2017-Sep-08 11:00N 34°16' E 032°06'2 4.1
2017-Sep-08 10:30N 34°18' E 032°06'2 4.1
2017-Sep-08 10:00N 34°20' E 032°06'2 4.4
2017-Sep-08 09:30N 34°23' E 032°06'  
2017-Sep-05 06:28N 33°53' E 032°03'3 5.7
2017-Sep-05 05:58N 33°52' E 032°06'2 3.3
2017-Sep-05 05:26N 33°54' E 032°07'2 4.7
2017-Sep-05 05:00N 33°56' E 032°06'2 4.0
2017-Sep-05 04:28N 33°58' E 032°06'2 4.9
2017-Sep-05 04:00N 34°00' E 032°06'3 3.5
2017-Sep-05 03:08N 33°57' E 032°08'1 4.8
2017-Sep-05 02:54N 33°59' E 032°08'4 4.7
2017-Sep-05 02:03N 34°03' E 032°08'0 4.7
2017-Sep-05 02:00N 34°03' E 032°08'3 4.6
2017-Sep-05 01:25N 34°06' E 032°08'1 3.3
2017-Sep-05 01:00N 34°07' E 032°08'1 3.0
2017-Sep-05 00:30N 34°08' E 032°08'1 2.0
2017-Sep-04 23:55N 34°10' E 032°08'2 4.4
2017-Sep-04 23:30N 34°11' E 032°08'8 6.3
2017-Sep-04 22:11N 34°20' E 032°07'1 4.4
2017-Sep-04 22:00N 34°20' E 032°07'4 4.6
2017-Sep-04 21:13N 34°24' E 032°07'2 4.7
2017-Sep-04 20:47N 34°26' E 032°07'4 4.6
2017-Sep-04 19:51N 34°30' E 032°07'2 4.6
2017-Sep-04 19:30N 34°32' E 032°07'3 4.7
2017-Sep-04 18:49N 34°35' E 032°07'2 4.6
2017-Sep-04 18:18N 34°38' E 032°07'1 4.7
2017-Sep-04 18:00N 34°39' E 032°07'7 2.9
2017-Sep-04 15:38N 34°34' E 032°01'1 4.2
2017-Sep-04 15:22N 34°33' E 032°01'2 4.2
2017-Sep-04 14:59N 34°32' E 032°01'4 4.4
2017-Sep-04 14:02N 34°27' E 032°01'0 4.9
2017-Sep-04 14:00N 34°27' E 032°01'12 4.6
2017-Sep-04 11:27N 34°15' E 032°01'8 5.7
2017-Sep-04 10:00N 34°07' E 032°01'6 0.7
2017-Sep-04 01:36N 34°04' E 032°08'1 4.2
2017-Sep-04 01:17N 34°05' E 032°08'4 4.3
2017-Sep-04 00:23N 34°09' E 032°08'3 4.4
2017-Sep-03 23:46N 34°12' E 032°08'1 5.2
2017-Sep-03 23:30N 34°13' E 032°08'  

Dump ship's entire track history